.
WxDataArchive / Data Records for 2009-02-22
2009-02-21 February 2009 2009-02-23

Data Records for Sunday, 22 February 2009

Time	Temp	Chill	HIndex	Humid	Dewpt	 Wind 	HiWind	WindDir	Rain 	Barom 
-----	----	-----	------	-----	-----	------	------	-------	-----	----- 
00:00	23.5	18.3	23.5	76	17.1	4	9	248	0.00	30.029 
00:05	23.5	18.3	23.5	76	17.1	4	10	270	0.00	30.027 
00:10	23.6	18.4	23.6	76	17.2	4	12	270	0.00	30.028 
00:15	23.6	17.2	23.6	75	16.9	5	12	270	0.00	30.030 
00:20	23.6	23.6	23.6	76	17.2	3	7	270	0.00	30.031 
00:25	23.6	18.4	23.6	76	17.2	4	10	270	0.00	30.032 
00:30	23.6	18.4	23.6	76	17.2	4	15	270	0.00	30.032 
00:35	23.6	18.4	23.6	76	17.2	4	9	270	0.00	30.032 
00:40	23.6	18.4	23.6	76	17.2	4	10	270	0.00	30.033 
00:45	23.6	18.4	23.6	76	17.2	4	13	270	0.00	30.032 
00:50	23.6	18.4	23.6	76	17.2	4	10	270	0.00	30.032 
00:55	23.6	17.2	23.6	76	17.2	5	12	270	0.00	30.032 
01:00	23.5	17.1	23.5	77	17.4	5	13	270	0.00	30.033 
01:05	23.5	23.5	23.5	78	17.7	3	6	248	0.00	30.033 
01:10	23.3	16.9	23.3	78	17.5	5	15	248	0.00	30.037 
01:15	23.2	23.2	23.2	79	17.7	3	7	248	0.00	30.039 
01:20	23.0	23.0	23.0	80	17.8	3	8	270	0.00	30.039 
01:25	23.0	15.5	23.0	80	17.8	6	15	270	0.00	30.041 
01:30	22.9	17.6	22.9	80	17.7	4	10	270	0.00	30.041 
01:35	22.7	17.3	22.7	80	17.5	4	11	248	0.00	30.041 
01:40	22.7	16.2	22.7	79	17.2	5	12	270	0.00	30.043 
01:45	22.5	15.9	22.5	79	17.0	5	13	270	0.00	30.046 
01:50	22.5	17.1	22.5	79	17.0	4	10	270	0.00	30.045 
01:55	22.4	15.8	22.4	78	16.6	5	12	248	0.00	30.045 
02:00	22.4	15.8	22.4	78	16.6	5	14	270	0.00	30.048 
02:05	22.2	16.8	22.2	77	16.1	4	7	270	0.00	30.050 
02:10	22.1	16.6	22.1	77	16.0	4	10	270	0.00	30.051 
02:15	22.1	16.6	22.1	77	16.0	4	11	270	0.00	30.052 
02:20	21.9	16.4	21.9	76	15.5	4	12	270	0.00	30.054 
02:25	21.8	21.8	21.8	76	15.4	3	9	270	0.00	30.056 
02:30	21.6	16.1	21.6	76	15.2	4	7	270	0.00	30.057 
02:35	21.6	16.1	21.6	77	15.5	4	8	270	0.00	30.058 
02:40	21.4	15.8	21.4	77	15.3	4	12	270	0.00	30.059 
02:45	21.4	21.4	21.4	76	15.0	3	7	270	0.00	30.062 
02:50	21.3	15.7	21.3	76	14.9	4	11	270	0.00	30.063 
02:55	21.1	15.5	21.1	77	15.0	4	12	270	0.00	30.062 
03:00	21.1	15.5	21.1	77	15.0	4	9	270	0.00	30.064 
03:05	21.1	21.1	21.1	77	15.0	3	10	270	0.00	30.069 
03:10	21.1	14.3	21.1	78	15.3	5	12	270	0.00	30.070 
03:15	21.1	21.1	21.1	79	15.6	3	11	248	0.00	30.070 
03:20	21.0	15.4	21.0	80	15.8	4	10	270	0.00	30.070 
03:25	21.0	15.4	21.0	80	15.8	4	10	270	0.00	30.071 
03:30	21.0	15.4	21.0	80	15.8	4	9	270	0.00	30.070 
03:35	20.8	20.8	20.8	80	15.6	3	10	270	0.00	30.070 
03:40	20.8	15.1	20.8	81	15.9	4	13	270	0.00	30.071 
03:45	20.6	13.7	20.6	81	15.7	5	12	248	0.00	30.071 
03:50	20.6	13.7	20.6	80	15.4	5	10	270	0.00	30.071 
03:55	20.5	14.8	20.5	80	15.3	4	12	270	0.00	30.073 
04:00	20.3	14.6	20.3	80	15.1	4	10	270	0.00	30.073 
04:05	20.0	20.0	20.0	80	14.8	3	7	270	0.00	30.079 
04:10	19.9	14.1	19.9	80	14.7	4	12	270	0.00	30.081 
04:15	19.7	13.9	19.7	80	14.6	4	12	248	0.00	30.085 
04:20	19.7	12.6	19.7	80	14.6	5	14	270	0.00	30.087 
04:25	19.5	13.6	19.5	80	14.4	4	7	270	0.00	30.086 
04:30	19.4	19.4	19.4	80	14.3	3	6	270	0.00	30.089 
04:35	19.2	19.2	19.2	80	14.1	3	9	270	0.00	30.090 
04:40	19.1	19.1	19.1	80	14.0	3	6	270	0.00	30.093 
04:45	19.1	13.2	19.1	80	14.0	4	10	270	0.00	30.093 
04:50	18.9	18.9	18.9	80	13.8	3	7	270	0.00	30.096 
04:55	18.9	11.7	18.9	80	13.8	5	11	270	0.00	30.101 
05:00	18.8	12.8	18.8	80	13.7	4	10	270	0.00	30.104 
05:05	18.8	12.8	18.8	80	13.7	4	11	270	0.00	30.107 
05:10	18.6	12.6	18.6	80	13.5	4	11	270	0.00	30.108 
05:15	18.4	12.4	18.4	80	13.3	4	9	270	0.00	30.108 
05:20	18.4	12.4	18.4	80	13.3	4	9	270	0.00	30.109 
05:25	18.4	12.4	18.4	80	13.3	4	9	270	0.00	30.109 
05:30	18.3	12.3	18.3	80	13.2	4	9	270	0.00	30.109 
05:35	18.1	18.1	18.1	80	13.0	3	7	270	0.00	30.112 
05:40	18.0	11.9	18.0	80	12.9	4	12	248	0.00	30.111 
05:45	18.0	11.9	18.0	81	13.2	4	11	270	0.00	30.118 
05:50	18.0	11.9	18.0	81	13.2	4	7	270	0.00	30.120 
05:55	18.0	11.9	18.0	81	13.2	4	10	248	0.00	30.122 
06:00	18.0	11.9	18.0	81	13.2	4	11	270	0.00	30.123 
06:05	18.1	18.1	18.1	81	13.3	3	6	270	0.00	30.127 
06:10	18.0	18.0	18.0	81	13.2	3	11	270	0.00	30.127 
06:15	17.8	11.7	17.8	81	13.0	4	7	270	0.00	30.127 
06:20	17.7	11.6	17.7	81	12.9	4	10	270	0.00	30.128 
06:25	17.5	17.5	17.5	81	12.7	3	5	270	0.00	30.133 
06:30	17.3	17.3	17.3	81	12.5	3	5	270	0.00	30.134 
06:35	17.3	17.3	17.3	81	12.5	3	9	248	0.00	30.136 
06:40	17.2	17.2	17.2	81	12.4	3	7	248	0.00	30.140 
06:45	17.2	11.0	17.2	81	12.4	4	10	270	0.00	30.142 
06:50	17.0	17.0	17.0	81	12.2	3	10	248	0.00	30.143 
06:55	16.9	10.6	16.9	81	12.1	4	10	248	0.00	30.144 
07:00	16.7	16.7	16.7	81	11.9	2	6	248	0.00	30.144 
07:05	16.7	16.7	16.7	81	11.9	3	6	248	0.00	30.146 
07:10	16.5	16.5	16.5	81	11.7	3	10	270	0.00	30.147 
07:15	16.5	16.5	16.5	81	11.7	3	7	270	0.00	30.151 
07:20	16.5	16.5	16.5	81	11.7	3	7	248	0.00	30.152 
07:25	16.4	16.4	16.4	81	11.6	3	7	270	0.00	30.157 
07:30	16.4	16.4	16.4	81	11.6	3	6	270	0.00	30.160 
07:35	16.4	16.4	16.4	81	11.6	3	9	270	0.00	30.160 
07:40	16.4	16.4	16.4	81	11.6	3	10	270	0.00	30.162 
07:45	16.2	16.2	16.2	81	11.4	3	11	248	0.00	30.167 
07:50	16.2	16.2	16.2	81	11.4	3	7	270	0.00	30.171 
07:55	16.4	16.4	16.4	81	11.6	3	7	270	0.00	30.174 
08:00	16.4	16.4	16.4	81	11.6	3	5	270	0.00	30.176 
08:05	16.4	16.4	16.4	81	11.6	3	10	270	0.00	30.179 
08:10	16.5	10.2	16.5	81	11.7	4	8	270	0.00	30.182 
08:15	16.7	10.4	16.7	81	11.9	4	10	270	0.00	30.189 
08:20	16.7	16.7	16.7	80	11.6	3	6	270	0.00	30.191 
08:25	16.7	16.7	16.7	80	11.6	3	6	270	0.00	30.192 
08:30	16.9	10.6	16.9	80	11.8	4	11	270	0.00	30.194 
08:35	16.9	16.9	16.9	79	11.5	3	6	270	0.00	30.198 
08:40	17.0	10.7	17.0	79	11.6	4	7	270	0.00	30.202 
08:45	17.0	10.7	17.0	79	11.6	4	11	270	0.00	30.203 
08:50	17.2	17.2	17.2	79	11.8	3	6	270	0.00	30.205 
08:55	17.5	17.5	17.5	79	12.1	3	7	270	0.00	30.206 
09:00	17.8	17.8	17.8	78	12.1	2	5	270	0.00	30.205 
09:05	18.0	18.0	18.0	78	12.3	3	9	270	0.00	30.206 
09:10	18.1	12.0	18.1	78	12.4	4	7	270	0.00	30.206 
09:15	18.4	18.4	18.4	78	12.7	3	9	270	0.00	30.211 
09:20	18.8	18.8	18.8	77	12.8	3	12	270	0.00	30.215 
09:25	18.9	12.9	18.9	77	12.9	4	7	270	0.00	30.214 
09:30	19.2	19.2	19.2	76	12.9	3	6	270	0.00	30.218 
09:35	19.5	19.5	19.5	76	13.2	3	7	270	0.00	30.219 
09:40	19.9	19.9	19.9	76	13.6	3	7	270	0.00	30.218 
09:45	20.0	20.0	20.0	75	13.4	3	7	270	0.00	30.218 
09:50	20.2	20.2	20.2	75	13.6	3	9	270	0.00	30.219 
09:55	20.5	20.5	20.5	75	13.9	3	6	270	0.00	30.223 
10:00	20.8	20.8	20.8	74	13.8	3	6	270	0.00	30.223 
10:05	21.1	21.1	21.1	74	14.1	3	6	270	0.00	30.224 
10:10	21.6	21.6	21.6	73	14.3	3	9	270	0.00	30.227 
10:15	21.8	21.8	21.8	73	14.5	3	12	270	0.00	30.229 
10:20	22.1	22.1	22.1	73	14.8	3	10	292	0.00	30.230 
10:25	22.2	16.8	22.2	73	14.9	4	6	270	0.00	30.228 
10:30	22.4	17.0	22.4	73	15.1	4	9	270	0.00	30.231 
10:35	22.7	22.7	22.7	73	15.4	2	7	270	0.00	30.231 
10:40	23.0	23.0	23.0	73	15.7	3	10	270	0.00	30.231 
10:45	23.2	23.2	23.2	72	15.5	3	6	270	0.00	30.234 
10:50	23.3	18.0	23.3	72	15.6	4	12	270	0.00	30.237 
10:55	23.6	23.6	23.6	72	15.9	3	7	292	0.00	30.242 
11:00	24.1	24.1	24.1	71	16.1	3	7	270	0.00	30.246 
11:05	24.1	24.1	24.1	70	15.8	3	7	270	0.00	30.245 
11:10	24.2	24.2	24.2	70	15.9	3	6	270	0.00	30.249 
11:15	24.4	24.4	24.4	70	16.0	3	9	292	0.00	30.253 
11:20	24.2	19.1	24.2	70	15.9	4	10	270	0.01	30.253 
11:25	24.5	24.5	24.5	71	16.5	3	7	270	0.00	30.257 
11:30	24.7	24.7	24.7	71	16.7	3	7	270	0.00	30.259 
11:35	24.7	19.6	24.7	70	16.3	4	9	270	0.00	30.260 
11:40	25.0	25.0	25.0	70	16.6	3	9	270	0.00	30.261 
11:45	25.0	20.0	25.0	70	16.6	4	10	270	0.00	30.263 
11:50	25.3	25.3	25.3	70	16.9	3	12	270	0.00	30.262 
11:55	25.3	20.3	25.3	70	16.9	4	7	270	0.00	30.265 
12:00	25.3	20.3	25.3	70	16.9	4	7	270	0.00	30.268 
12:05	25.7	25.7	25.7	70	17.3	3	6	270	0.00	30.266 
12:10	26.0	26.0	26.0	69	17.2	3	8	270	0.00	30.263 
12:15	26.0	21.1	26.0	70	17.6	4	9	270	0.00	30.264 
12:20	26.3	21.5	26.3	69	17.5	4	10	270	0.00	30.263 
12:25	26.4	26.4	26.4	70	18.0	3	7	270	0.00	30.267 
12:30	26.6	21.8	26.6	71	18.5	4	10	270	0.00	30.263 
12:35	26.6	21.8	26.6	71	18.5	4	7	270	0.00	30.261 
12:40	27.0	27.0	27.0	70	18.5	3	6	270	0.00	30.261 
12:45	27.0	27.0	27.0	68	17.9	3	7	270	0.00	30.259 
12:50	27.3	27.3	27.3	69	18.5	3	8	270	0.00	30.261 
12:55	27.6	27.6	27.6	67	18.1	3	11	270	0.00	30.260 
13:00	27.8	23.2	27.8	66	17.9	4	7	270	0.00	30.260 
13:05	28.1	23.6	28.1	65	17.9	4	8	270	0.00	30.260 
13:10	28.1	23.6	28.1	64	17.5	4	10	270	0.00	30.259 
13:15	27.8	23.2	27.8	65	17.6	4	11	270	0.00	30.263 
13:20	27.9	27.9	27.9	65	17.7	3	10	270	0.00	30.261 
13:25	28.4	28.4	28.4	65	18.2	3	9	270	0.00	30.260 
13:30	28.5	24.0	28.5	64	17.9	4	10	270	0.00	30.264 
13:35	28.4	28.4	28.4	65	18.2	3	7	270	0.00	30.266 
13:40	28.2	28.2	28.2	66	18.3	3	6	292	0.00	30.265 
13:45	28.1	28.1	28.1	64	17.5	3	10	270	0.01	30.268 
13:50	28.1	23.6	28.1	64	17.5	4	10	270	0.00	30.269 
13:55	28.1	28.1	28.1	65	17.9	3	7	270	0.00	30.269 
14:00	28.2	28.2	28.2	64	17.6	3	7	270	0.00	30.270 
14:05	28.7	24.3	28.7	64	18.1	4	9	270	0.00	30.274 
14:10	29.0	24.6	29.0	63	18.0	4	8	270	0.00	30.271 
14:15	28.5	28.5	28.5	60	16.4	3	7	270	0.00	30.274 
14:20	28.2	23.7	28.2	62	16.9	4	12	270	0.00	30.277 
14:25	28.1	23.6	28.1	62	16.8	4	9	315	0.00	30.277 
14:30	28.2	23.7	28.2	63	17.2	4	9	270	0.00	30.285 
14:35	28.4	28.4	28.4	64	17.8	3	10	315	0.00	30.288 
14:40	28.1	23.6	28.1	61	16.4	4	9	270	0.00	30.292 
14:45	28.1	23.6	28.1	64	17.5	4	6	270	0.00	30.294 
14:50	27.9	23.3	27.9	62	16.6	4	9	270	0.00	30.297 
14:55	27.6	23.0	27.6	62	16.3	4	8	270	0.00	30.297 
15:00	27.6	23.0	27.6	64	17.0	4	9	270	0.00	30.302 
15:05	27.6	23.0	27.6	63	16.7	4	12	270	0.00	30.304 
15:10	27.5	22.9	27.5	62	16.2	4	10	270	0.00	30.307 
15:15	27.5	22.9	27.5	63	16.6	4	10	270	0.00	30.310 
15:20	27.3	22.6	27.3	62	16.0	4	9	270	0.00	30.312 
15:25	27.3	27.3	27.3	61	15.7	3	9	270	0.00	30.313 
15:30	27.3	27.3	27.3	62	16.0	3	10	270	0.00	30.322 
15:35	27.2	21.4	27.2	62	15.9	5	11	270	0.00	30.323 
15:40	27.0	22.3	27.0	62	15.7	4	10	270	0.00	30.325 
15:45	26.9	26.9	26.9	62	15.6	3	9	270	0.00	30.326 
15:50	26.4	20.5	26.4	66	16.6	5	11	270	0.00	30.331 
15:55	26.3	26.3	26.3	68	17.2	3	6	270	0.00	30.333 
16:00	26.3	26.3	26.3	66	16.5	3	9	292	0.00	30.333 
16:05	26.7	20.9	26.7	64	16.2	5	10	270	0.00	30.338 
16:10	27.0	22.3	27.0	64	16.5	4	7	270	0.00	30.339 
16:15	27.2	27.2	27.2	63	16.3	3	6	270	0.00	30.342 
16:20	27.0	27.0	27.0	63	16.1	3	10	270	0.00	30.344 
16:25	26.7	22.0	26.7	63	15.8	4	8	270	0.00	30.352 
16:30	26.3	21.5	26.3	63	15.4	4	8	270	0.00	30.356 
16:35	26.3	21.5	26.3	62	15.1	4	7	270	0.00	30.356 
16:40	26.1	26.1	26.1	63	15.3	3	6	270	0.00	30.358 
16:45	26.1	21.3	26.1	62	14.9	4	7	270	0.00	30.359 
16:50	26.1	21.3	26.1	62	14.9	4	8	270	0.00	30.360 
16:55	26.1	21.3	26.1	61	14.5	4	11	270	0.00	30.364 
17:00	25.8	20.9	25.8	58	13.1	4	7	270	0.00	30.366 
17:05	25.7	25.7	25.7	58	13.0	3	7	292	0.00	30.371 
17:10	25.6	20.7	25.6	58	12.9	4	7	270	0.00	30.373 
17:15	25.7	25.7	25.7	59	13.4	3	9	270	0.00	30.375 
17:20	25.7	20.8	25.7	59	13.4	4	9	270	0.00	30.375 
17:25	25.8	25.8	25.8	59	13.5	3	6	292	0.00	30.376 
17:30	25.8	20.9	25.8	58	13.1	4	11	270	0.00	30.378 
17:35	25.6	25.6	25.6	58	12.9	3	9	270	0.00	30.381 
17:40	25.4	25.4	25.4	59	13.1	3	7	270	0.00	30.385 
17:45	25.3	25.3	25.3	59	13.0	3	10	270	0.00	30.388 
17:50	25.1	20.1	25.1	59	12.8	4	6	270	0.00	30.390 
17:55	25.0	20.0	25.0	60	13.1	4	7	270	0.00	30.392 
18:00	24.7	24.7	24.7	60	12.8	3	8	292	0.00	30.394 
18:05	24.5	24.5	24.5	60	12.6	3	9	292	0.00	30.395 
18:10	24.2	24.2	24.2	61	12.7	3	7	270	0.00	30.403 
18:15	24.1	24.1	24.1	61	12.6	2	5	270	0.00	30.408 
18:20	23.9	23.9	23.9	62	12.8	2	5	270	0.00	30.410 
18:25	23.8	23.8	23.8	62	12.7	2	5	248	0.00	30.411 
18:30	23.6	23.6	23.6	63	12.9	2	5	270	0.00	30.410 
18:35	23.5	23.5	23.5	64	13.1	2	4	270	0.00	30.410 
18:40	23.3	23.3	23.3	65	13.3	2	4	270	0.00	30.412 
18:45	23.2	23.2	23.2	65	13.2	1	3	315	0.00	30.417 
18:50	23.0	23.0	23.0	66	13.4	2	4	248	0.00	30.420 
18:55	23.0	23.0	23.0	66	13.4	1	3	248	0.00	30.423 
19:00	22.9	22.9	22.9	67	13.6	1	3	248	0.00	30.425 
19:05	22.9	22.9	22.9	68	13.9	2	4	270	0.00	30.428 
19:10	22.7	22.7	22.7	69	14.1	1	4	292	0.00	30.430 
19:15	22.7	22.7	22.7	69	14.1	2	3	270	0.00	30.432 
19:20	22.5	22.5	22.5	69	13.9	1	4	315	0.00	30.435 
19:25	22.5	22.5	22.5	69	13.9	2	4	270	0.00	30.439 
19:30	22.4	22.4	22.4	69	13.8	1	4	270	0.00	30.441 
19:35	22.4	22.4	22.4	69	13.8	1	5	270	0.00	30.443 
19:40	22.2	22.2	22.2	70	13.9	2	4	248	0.00	30.443 
19:45	22.2	22.2	22.2	70	13.9	1	3	248	0.00	30.446 
19:50	22.1	22.1	22.1	70	13.8	1	3	248	0.00	30.450 
19:55	22.1	22.1	22.1	70	13.8	1	3	248	0.00	30.450 
20:00	22.1	22.1	22.1	71	14.2	1	4	248	0.00	30.455 
20:05	22.1	22.1	22.1	71	14.2	2	4	270	0.00	30.455 
20:10	22.1	22.1	22.1	70	13.8	2	4	270	0.00	30.456 
20:15	22.1	22.1	22.1	70	13.8	1	4	248	0.00	30.457 
20:20	22.1	22.1	22.1	70	13.8	1	4	248	0.00	30.458 
20:25	22.1	22.1	22.1	70	13.8	2	5	270	0.00	30.458 
20:30	22.1	22.1	22.1	70	13.8	2	6	270	0.00	30.461 
20:35	21.9	21.9	21.9	69	13.3	1	4	270	0.00	30.463 
20:40	21.9	21.9	21.9	69	13.3	1	4	248	0.00	30.466 
20:45	22.1	22.1	22.1	69	13.5	1	4	270	0.00	30.468 
20:50	22.1	22.1	22.1	69	13.5	1	6	248	0.00	30.469 
20:55	22.1	22.1	22.1	69	13.5	1	5	248	0.00	30.470 
21:00	22.1	22.1	22.1	69	13.5	2	5	270	0.00	30.471 
21:05	22.1	22.1	22.1	69	13.5	1	3	270	0.00	30.469 
21:10	22.1	22.1	22.1	69	13.5	1	5	270	0.00	30.470 
21:15	21.9	21.9	21.9	69	13.3	1	3	270	0.00	30.472 
21:20	21.9	21.9	21.9	70	13.6	1	4	248	0.00	30.472 
21:25	21.9	21.9	21.9	70	13.6	1	2	270	0.00	30.474 
21:30	21.9	21.9	21.9	70	13.6	1	2	292	0.00	30.474 
21:35	21.8	21.8	21.8	71	13.9	1	3	292	0.00	30.473 
21:40	21.8	21.8	21.8	71	13.9	1	3	270	0.00	30.475 
21:45	21.6	21.6	21.6	71	13.7	1	2	270	0.00	30.478 
21:50	21.6	21.6	21.6	72	14.0	1	5	292	0.00	30.482 
21:55	21.6	21.6	21.6	73	14.3	1	4	248	0.00	30.483 
22:00	21.4	21.4	21.4	73	14.1	1	3	248	0.00	30.483 
22:05	21.4	21.4	21.4	73	14.1	1	2	248	0.00	30.481 
22:10	21.4	21.4	21.4	74	14.4	1	4	248	0.00	30.482 
22:15	21.6	21.6	21.6	74	14.6	1	3	248	0.00	30.481 
22:20	21.6	21.6	21.6	74	14.6	1	3	248	0.00	30.480 
22:25	21.6	21.6	21.6	75	14.9	1	4	292	0.00	30.478 
22:30	21.8	21.8	21.8	75	15.1	1	3	338	0.00	30.478 
22:35	21.8	21.8	21.8	74	14.8	1	2	202	0.00	30.479 
22:40	21.8	21.8	21.8	74	14.8	1	3	248	0.00	30.479 
22:45	21.8	21.8	21.8	74	14.8	0	3	270	0.00	30.481 
22:50	21.8	21.8	21.8	74	14.8	1	5	270	0.00	30.481 
22:55	21.9	21.9	21.9	73	14.6	2	4	338	0.00	30.482 
23:00	21.9	21.9	21.9	73	14.6	1	4	248	0.00	30.483 
23:05	21.9	21.9	21.9	72	14.3	2	5	292	0.00	30.483 
23:10	21.8	21.8	21.8	72	14.2	1	4	248	0.00	30.483 
23:15	21.6	21.6	21.6	72	14.0	1	5	270	0.00	30.484 
23:20	21.4	21.4	21.4	72	13.8	1	3	338	0.00	30.484 
23:25	21.3	21.3	21.3	73	14.0	1	3	248	0.00	30.484 
23:30	21.3	21.3	21.3	73	14.0	1	3	270	0.00	30.484 
23:35	21.1	21.1	21.1	73	13.8	1	3	270	0.00	30.484 
23:40	21.1	21.1	21.1	73	13.8	1	3	270	0.00	30.484 
23:45	21.0	21.0	21.0	73	13.7	1	3	248	0.00	30.484 
23:50	20.8	20.8	20.8	73	13.5	1	2	315	0.00	30.484 
23:55	20.6	20.6	20.6	73	13.3	1	4	248	0.00	30.484 

CoCoRaHS
IN-AL-39
A2 Web Hosting
Creative Commons License
GoDaddy
search engine by freefind advanced

loaded 2018-11-13 17:07:17 • last modified 2010-11-18 10:43:29
Privacy PolicyDisclaimer
• wx.awcolley.com is powered by PmWiki v.2002016 •
• all content (unless otherwise noted) © 2018 A W Colley